Terminal Aerodrome Forecast
Issued by NWS Paducah, KY

Home | Current Version | Previous Version | Graphics & Text | Print | Product List | Glossary On
Versions: 1 2 3 4 5 6 7 8 9 10 11 12 13 14 15 16
784
FTUS43 KPAH 260520
TAFEVV
TAF
KEVV 260520Z 2606/2706 32003KT P6SM FEW070
     FM261400 30006KT P6SM SKC
     FM262300 VRB03KT P6SM SCT060 BKN150=

USA.gov is the U.S. government's official web portal to all federal, state and local government web resources and services.